createdAt,value
2023-02-05T00:00:00.706Z,0
2023-02-05T00:01:00.744Z,0
2023-02-05T00:02:00.776Z,0
2023-02-05T00:03:00.743Z,0
2023-02-05T00:04:00.706Z,0
2023-02-05T00:05:00.712Z,0
2023-02-05T00:06:00.723Z,0
2023-02-05T00:07:00.735Z,0
2023-02-05T00:08:00.711Z,0
2023-02-05T00:09:00.712Z,0
2023-02-05T00:10:00.710Z,0
2023-02-05T00:11:00.713Z,0
2023-02-05T00:12:00.711Z,0
2023-02-05T00:13:00.709Z,0
2023-02-05T00:14:00.725Z,0
2023-02-05T00:15:00.717Z,0
2023-02-05T00:16:00.712Z,0
2023-02-05T00:17:00.712Z,0
2023-02-05T00:18:00.737Z,0
2023-02-05T00:19:00.719Z,0
2023-02-05T00:20:00.712Z,0
2023-02-05T00:21:00.713Z,0
2023-02-05T00:22:00.716Z,0
2023-02-05T00:23:00.713Z,0
2023-02-05T00:24:00.724Z,0
2023-02-05T00:25:00.716Z,0
2023-02-05T00:26:00.717Z,0
2023-02-05T00:27:00.718Z,0
2023-02-05T00:28:00.766Z,0
2023-02-05T00:29:00.714Z,0
2023-02-05T00:30:00.728Z,0
2023-02-05T00:31:00.808Z,0
2023-02-05T00:32:00.719Z,0
2023-02-05T00:33:00.719Z,0
2023-02-05T00:34:00.744Z,0
2023-02-05T00:35:00.720Z,0
2023-02-05T00:36:00.720Z,0
2023-02-05T00:37:00.720Z,0
2023-02-05T00:38:00.721Z,0
2023-02-05T00:39:00.722Z,0
2023-02-05T00:40:00.720Z,0
2023-02-05T00:41:00.760Z,0
2023-02-05T00:42:00.722Z,0
2023-02-05T00:43:00.722Z,0
2023-02-05T00:44:00.721Z,0
2023-02-05T00:45:00.727Z,0
2023-02-05T00:46:00.815Z,0
2023-02-05T00:47:00.717Z,0
2023-02-05T00:48:00.722Z,0
2023-02-05T00:49:00.719Z,0
2023-02-05T00:50:00.744Z,0
2023-02-05T00:51:00.721Z,0
2023-02-05T00:52:00.721Z,0
2023-02-05T00:53:00.726Z,0
2023-02-05T00:54:00.718Z,0
2023-02-05T00:55:00.715Z,0
2023-02-05T00:56:00.735Z,0
2023-02-05T00:57:00.723Z,0
2023-02-05T00:58:00.723Z,0
2023-02-05T00:59:00.720Z,0
2023-02-05T01:00:00.727Z,0
2023-02-05T01:01:00.733Z,0
2023-02-05T01:02:00.723Z,0
2023-02-05T01:03:00.731Z,0
2023-02-05T01:04:00.724Z,0
2023-02-05T01:05:00.724Z,0
2023-02-05T01:06:00.752Z,0
2023-02-05T01:07:00.724Z,0
2023-02-05T01:08:00.729Z,0
2023-02-05T01:09:00.733Z,0
2023-02-05T01:10:00.727Z,0
2023-02-05T01:11:00.726Z,0
2023-02-05T01:12:00.726Z,0
2023-02-05T01:13:00.727Z,0
2023-02-05T01:14:00.728Z,0
2023-02-05T01:15:00.727Z,0
2023-02-05T01:16:00.774Z,0
2023-02-05T01:17:00.726Z,0
2023-02-05T01:18:00.728Z,0
2023-02-05T01:19:00.727Z,0
2023-02-05T01:20:00.730Z,0
2023-02-05T01:21:00.740Z,0
2023-02-05T01:22:00.754Z,0
2023-02-05T01:23:00.744Z,0
2023-02-05T01:24:00.727Z,0
2023-02-05T01:25:00.729Z,0
2023-02-05T01:26:00.742Z,0
2023-02-05T01:27:00.739Z,0
2023-02-05T01:28:00.790Z,0
2023-02-05T01:29:00.730Z,0
2023-02-05T01:30:00.733Z,0
2023-02-05T01:31:00.846Z,0
2023-02-05T01:32:00.729Z,0
2023-02-05T01:33:00.734Z,0
2023-02-05T01:34:00.740Z,0
2023-02-05T01:35:00.731Z,0
2023-02-05T01:36:00.732Z,0
2023-02-05T01:37:00.732Z,0
2023-02-05T01:38:00.768Z,0
2023-02-05T01:39:00.727Z,0
2023-02-05T01:40:00.726Z,0
2023-02-05T01:41:00.730Z,0
2023-02-05T01:42:00.731Z,0
2023-02-05T01:43:00.728Z,0
2023-02-05T01:44:00.725Z,0
2023-02-05T01:45:00.726Z,0
2023-02-05T01:46:00.772Z,0
2023-02-05T01:47:00.726Z,0
2023-02-05T01:48:00.743Z,0
2023-02-05T01:49:00.728Z,0
2023-02-05T01:50:00.725Z,0
2023-02-05T01:51:00.726Z,0
2023-02-05T01:52:00.729Z,0
2023-02-05T01:53:00.734Z,0
2023-02-05T01:54:00.751Z,0
2023-02-05T01:55:00.730Z,0
2023-02-05T01:56:00.730Z,0
2023-02-05T01:57:00.727Z,0
2023-02-05T01:58:00.739Z,0
2023-02-05T01:59:00.734Z,0
2023-02-05T02:00:00.723Z,0
2023-02-05T02:01:00.727Z,0
2023-02-05T02:02:00.729Z,0
2023-02-05T02:03:00.722Z,0
2023-02-05T02:04:00.760Z,0
2023-02-05T02:05:00.771Z,0
2023-02-05T02:06:00.731Z,0
2023-02-05T02:07:00.725Z,0
2023-02-05T02:08:00.728Z,0
2023-02-05T02:09:00.726Z,0
2023-02-05T02:10:00.752Z,0
2023-02-05T02:11:00.725Z,0
2023-02-05T02:12:00.727Z,0
2023-02-05T02:13:00.731Z,0
2023-02-05T02:14:00.728Z,0
2023-02-05T02:15:00.726Z,0
2023-02-05T02:16:00.804Z,0
2023-02-05T02:17:00.731Z,0
2023-02-05T02:18:00.728Z,0
2023-02-05T02:19:00.730Z,0
2023-02-05T02:20:00.728Z,0
2023-02-05T02:21:00.740Z,0
2023-02-05T02:22:00.750Z,0
2023-02-05T02:23:00.734Z,0
2023-02-05T02:24:00.730Z,0
2023-02-05T02:25:00.730Z,0
2023-02-05T02:26:00.758Z,0
2023-02-05T02:27:00.728Z,0
2023-02-05T02:28:00.799Z,0
2023-02-05T02:29:00.733Z,0
2023-02-05T02:30:00.737Z,0
2023-02-05T02:31:00.862Z,0
2023-02-05T02:32:00.734Z,0
2023-02-05T02:33:00.732Z,0
2023-02-05T02:34:00.735Z,0
2023-02-05T02:35:00.729Z,0
2023-02-05T02:36:00.731Z,0
2023-02-05T02:37:00.730Z,0
2023-02-05T02:38:00.730Z,0
2023-02-05T02:39:00.729Z,0
2023-02-05T02:40:00.741Z,0
2023-02-05T02:41:00.731Z,0
2023-02-05T02:42:00.751Z,0
2023-02-05T02:43:00.734Z,0
2023-02-05T02:44:00.728Z,0
2023-02-05T02:45:00.739Z,0
2023-02-05T02:46:00.735Z,0
2023-02-05T02:47:00.733Z,0
2023-02-05T02:48:00.731Z,0
2023-02-05T02:49:00.737Z,0
2023-02-05T02:50:00.734Z,0
2023-02-05T02:51:00.733Z,0
2023-02-05T02:52:00.736Z,0
2023-02-05T02:53:00.735Z,0
2023-02-05T02:54:00.739Z,0
2023-02-05T02:55:00.740Z,0
2023-02-05T02:56:00.737Z,0
2023-02-05T02:57:00.736Z,0
2023-02-05T02:58:00.764Z,0
2023-02-05T02:59:00.739Z,0
2023-02-05T03:00:00.743Z,0
2023-02-05T03:01:00.844Z,0
2023-02-05T03:02:00.737Z,0
2023-02-05T03:03:00.736Z,0
2023-02-05T03:04:00.749Z,0
2023-02-05T03:05:00.738Z,0
2023-02-05T03:06:00.734Z,0
2023-02-05T03:07:00.745Z,0
2023-02-05T03:08:00.739Z,0
2023-02-05T03:09:00.740Z,0
2023-02-05T03:10:00.750Z,0
2023-02-05T03:11:00.743Z,0
2023-02-05T03:12:00.754Z,0
2023-02-05T03:13:00.742Z,0
2023-02-05T03:14:06.745Z,0
2023-02-05T03:15:00.749Z,0
2023-02-05T03:16:00.865Z,0
2023-02-05T03:17:00.742Z,0
2023-02-05T03:18:00.771Z,0
2023-02-05T03:19:00.741Z,0
2023-02-05T03:20:00.737Z,0
2023-02-05T03:21:00.753Z,0
2023-02-05T03:22:00.740Z,0
2023-02-05T03:23:00.749Z,0
2023-02-05T03:24:00.741Z,0
2023-02-05T03:25:00.744Z,0
2023-02-05T03:26:00.746Z,0
2023-02-05T03:27:00.740Z,0
2023-02-05T03:28:00.768Z,0
2023-02-05T03:29:00.770Z,0
2023-02-05T03:30:00.741Z,0
2023-02-05T03:31:00.780Z,0
2023-02-05T03:32:00.741Z,0
2023-02-05T03:33:00.750Z,0
2023-02-05T03:34:00.781Z,0
2023-02-05T03:35:00.743Z,0
2023-02-05T03:36:00.736Z,0
2023-02-05T03:37:00.741Z,0
2023-02-05T03:38:00.742Z,0
2023-02-05T03:39:00.742Z,0
2023-02-05T03:40:00.739Z,0
2023-02-05T03:41:00.749Z,0
2023-02-05T03:42:00.748Z,0
2023-02-05T03:43:00.743Z,0
2023-02-05T03:44:00.747Z,0
2023-02-05T03:45:00.743Z,0
2023-02-05T03:46:00.820Z,0
2023-02-05T03:47:00.748Z,0
2023-02-05T03:48:00.745Z,0
2023-02-05T03:49:00.743Z,0
2023-02-05T03:50:00.771Z,0
2023-02-05T03:51:00.749Z,0
2023-02-05T03:52:00.749Z,0
2023-02-05T03:53:00.749Z,0
2023-02-05T03:54:00.746Z,0
2023-02-05T03:55:00.746Z,0
2023-02-05T03:56:00.754Z,0
2023-02-05T03:57:00.739Z,0
2023-02-05T03:58:00.743Z,0
2023-02-05T03:59:00.744Z,0
2023-02-05T04:00:00.740Z,0
2023-02-05T04:01:00.804Z,0
2023-02-05T04:02:00.776Z,0
2023-02-05T04:03:00.753Z,0
2023-02-05T04:04:00.741Z,0
2023-02-05T04:05:00.746Z,0
2023-02-05T04:06:00.768Z,0
2023-02-05T04:07:00.740Z,0
2023-02-05T04:08:00.741Z,0
2023-02-05T04:09:00.738Z,0
2023-02-05T04:10:00.737Z,0
2023-02-05T04:11:00.744Z,0
2023-02-05T04:12:00.742Z,0
2023-02-05T04:13:00.739Z,0
2023-02-05T04:14:00.738Z,0
2023-02-05T04:15:00.738Z,0
2023-02-05T04:16:00.803Z,0
2023-02-05T04:17:00.744Z,0
2023-02-05T04:18:00.761Z,0
2023-02-05T04:19:00.749Z,0
2023-02-05T04:20:00.739Z,0
2023-02-05T04:21:00.741Z,0
2023-02-05T04:22:00.768Z,0
2023-02-05T04:23:00.739Z,0
2023-02-05T04:24:00.854Z,0
2023-02-05T04:25:00.740Z,0
2023-02-05T04:26:00.746Z,0
2023-02-05T04:27:00.739Z,0
2023-02-05T04:28:00.811Z,0
2023-02-05T04:29:00.753Z,0
2023-02-05T04:30:00.741Z,0
2023-02-05T04:31:00.812Z,0
2023-02-05T04:32:00.759Z,0
2023-02-05T04:33:00.749Z,0
2023-02-05T04:34:00.746Z,0
2023-02-05T04:35:00.747Z,0
2023-02-05T04:36:00.755Z,0
2023-02-05T04:37:00.747Z,0
2023-02-05T04:38:00.776Z,0
2023-02-05T04:39:00.760Z,0
2023-02-05T04:40:00.752Z,0
2023-02-05T04:41:00.751Z,0
2023-02-05T04:42:00.760Z,0
2023-02-05T04:43:00.751Z,0
2023-02-05T04:44:00.750Z,0
2023-02-05T04:45:00.751Z,0
2023-02-05T04:46:00.800Z,0
2023-02-05T04:47:00.750Z,0
2023-02-05T04:48:00.757Z,0
2023-02-05T04:49:00.748Z,0
2023-02-05T04:50:00.754Z,0
2023-02-05T04:51:00.749Z,0
2023-02-05T04:52:00.756Z,0
2023-02-05T04:53:00.759Z,0
2023-02-05T04:54:00.777Z,0
2023-02-05T04:55:00.759Z,0
2023-02-05T04:56:00.752Z,0
2023-02-05T04:57:00.752Z,0
2023-02-05T04:58:00.752Z,0
2023-02-05T04:59:00.756Z,0
2023-02-05T05:00:00.753Z,0
2023-02-05T05:01:00.788Z,0
2023-02-05T05:02:00.757Z,0
2023-02-05T05:03:00.753Z,0
2023-02-05T05:04:00.762Z,0
2023-02-05T05:05:00.751Z,0
2023-02-05T05:06:00.753Z,0
2023-02-05T05:07:00.756Z,0
2023-02-05T05:08:00.759Z,0
2023-02-05T05:09:00.757Z,0
2023-02-05T05:10:00.800Z,0
2023-02-05T05:11:00.754Z,0
2023-02-05T05:12:00.753Z,0
2023-02-05T05:13:00.757Z,0
2023-02-05T05:14:00.755Z,0
2023-02-05T05:15:00.752Z,0
2023-02-05T05:16:00.764Z,0
2023-02-05T05:17:00.756Z,0
2023-02-05T05:18:00.757Z,0
2023-02-05T05:19:00.755Z,0
2023-02-05T05:20:00.761Z,0
2023-02-05T05:21:00.756Z,0
2023-02-05T05:22:00.752Z,0
2023-02-05T05:23:00.753Z,0
2023-02-05T05:24:00.754Z,0
2023-02-05T05:25:00.759Z,0
2023-02-05T05:26:00.787Z,0
2023-02-05T05:27:00.755Z,0
2023-02-05T05:28:00.755Z,0
2023-02-05T05:29:00.751Z,0
2023-02-05T05:30:00.757Z,0
2023-02-05T05:31:00.805Z,0
2023-02-05T05:32:00.804Z,0
2023-02-05T05:33:00.760Z,0
2023-02-05T05:34:00.759Z,0
2023-02-05T05:35:00.756Z,0
2023-02-05T05:36:00.758Z,0
2023-02-05T05:37:00.759Z,0
2023-02-05T05:38:00.759Z,0
2023-02-05T05:39:00.762Z,0
2023-02-05T05:40:00.756Z,0
2023-02-05T05:41:00.759Z,0
2023-02-05T05:42:00.800Z,0
2023-02-05T05:43:00.758Z,0
2023-02-05T05:44:00.758Z,0
2023-02-05T05:45:00.760Z,0
2023-02-05T05:46:00.800Z,0
2023-02-05T05:47:00.760Z,0
2023-02-05T05:48:00.764Z,0
2023-02-05T05:49:00.760Z,0
2023-02-05T05:50:00.756Z,0
2023-02-05T05:51:00.763Z,0
2023-02-05T05:52:00.758Z,0
2023-02-05T05:53:00.759Z,0
2023-02-05T05:54:00.781Z,0
2023-02-05T05:55:00.760Z,0
2023-02-05T05:56:00.757Z,0
2023-02-05T05:57:00.764Z,0
2023-02-05T05:58:00.780Z,0
2023-02-05T05:59:00.762Z,0
2023-02-05T06:00:00.774Z,0
2023-02-05T06:01:00.758Z,0
2023-02-05T06:02:00.758Z,0
2023-02-05T06:03:00.762Z,0
2023-02-05T06:04:02.997Z,0
2023-02-05T06:05:00.759Z,0
2023-02-05T06:06:00.758Z,2
2023-02-05T06:07:00.754Z,2
2023-02-05T06:08:00.757Z,2
2023-02-05T06:09:00.756Z,2
2023-02-05T06:10:00.757Z,2
2023-02-05T06:11:00.758Z,5
2023-02-05T06:12:00.763Z,5
2023-02-05T06:13:00.756Z,5
2023-02-05T06:14:00.784Z,5
2023-02-05T06:15:00.758Z,5
2023-02-05T06:16:00.809Z,11
2023-02-05T06:17:00.755Z,11
2023-02-05T06:18:00.760Z,11
2023-02-05T06:19:00.757Z,11
2023-02-05T06:20:00.766Z,11
2023-02-05T06:21:00.753Z,25
2023-02-05T06:22:00.763Z,25
2023-02-05T06:23:00.758Z,25
2023-02-05T06:24:00.758Z,25
2023-02-05T06:25:00.762Z,25
2023-02-05T06:26:00.769Z,47
2023-02-05T06:27:00.771Z,47
2023-02-05T06:28:00.783Z,47
2023-02-05T06:29:00.763Z,47
2023-02-05T06:30:00.784Z,47
2023-02-05T06:31:00.934Z,76
2023-02-05T06:32:00.820Z,76
2023-02-05T06:33:00.761Z,76
2023-02-05T06:34:00.766Z,76
2023-02-05T06:35:00.799Z,76
2023-02-05T06:36:00.767Z,116
2023-02-05T06:37:00.796Z,116
2023-02-05T06:38:00.764Z,116
2023-02-05T06:39:00.766Z,116
2023-02-05T06:40:00.771Z,116
2023-02-05T06:41:00.769Z,171
2023-02-05T06:42:00.781Z,171
2023-02-05T06:43:00.771Z,171
2023-02-05T06:44:00.767Z,171
2023-02-05T06:45:00.770Z,171
2023-02-05T06:46:00.928Z,227
2023-02-05T06:47:00.784Z,227
2023-02-05T06:48:00.769Z,227
2023-02-05T06:49:00.767Z,227
2023-02-05T06:50:00.772Z,227
2023-02-05T06:51:00.769Z,283
2023-02-05T06:52:00.771Z,283
2023-02-05T06:53:00.771Z,283
2023-02-05T06:54:00.774Z,283
2023-02-05T06:55:00.770Z,283
2023-02-05T06:56:00.772Z,330
2023-02-05T06:57:00.785Z,330
2023-02-05T06:58:00.770Z,330
2023-02-05T06:59:00.766Z,330
2023-02-05T07:00:00.769Z,330
2023-02-05T07:01:00.772Z,421
2023-02-05T07:02:00.863Z,421
2023-02-05T07:03:00.806Z,421
2023-02-05T07:04:00.777Z,421
2023-02-05T07:05:00.774Z,421
2023-02-05T07:06:00.777Z,515
2023-02-05T07:07:00.776Z,515
2023-02-05T07:08:00.776Z,515
2023-02-05T07:09:00.779Z,515
2023-02-05T07:10:00.776Z,515
2023-02-05T07:11:00.778Z,545
2023-02-05T07:12:00.778Z,547
2023-02-05T07:13:00.779Z,547
2023-02-05T07:14:00.778Z,547
2023-02-05T07:15:00.780Z,547
2023-02-05T07:16:00.788Z,647
2023-02-05T07:17:00.783Z,647
2023-02-05T07:18:00.908Z,647
2023-02-05T07:19:00.778Z,647
2023-02-05T07:20:00.780Z,647
2023-02-05T07:21:00.782Z,915
2023-02-05T07:22:00.781Z,915
2023-02-05T07:23:00.777Z,915
2023-02-05T07:24:00.783Z,915
2023-02-05T07:25:02.670Z,915
2023-02-05T07:26:00.781Z,5052
2023-02-05T07:27:00.780Z,5052
2023-02-05T07:28:00.885Z,5052
2023-02-05T07:29:00.783Z,5052
2023-02-05T07:30:00.798Z,5052
2023-02-05T07:31:00.886Z,5052
2023-02-05T07:32:00.845Z,5882
2023-02-05T07:33:00.803Z,5882
2023-02-05T07:34:00.808Z,5882
2023-02-05T07:35:00.788Z,5882
2023-02-05T07:36:00.784Z,5882
2023-02-05T07:37:00.789Z,6751
2023-02-05T07:38:00.784Z,6751
2023-02-05T07:39:00.781Z,6751
2023-02-05T07:40:00.786Z,6751
2023-02-05T07:41:00.784Z,6751
2023-02-05T07:42:00.786Z,6794
2023-02-05T07:43:00.788Z,6794
2023-02-05T07:44:00.785Z,6794
2023-02-05T07:45:00.778Z,6794
2023-02-05T07:46:00.779Z,6794
2023-02-05T07:47:00.777Z,7068
2023-02-05T07:48:00.787Z,7068
2023-02-05T07:49:00.783Z,7068
2023-02-05T07:50:00.818Z,7068
2023-02-05T07:51:00.782Z,7068
2023-02-05T07:52:00.779Z,7602
2023-02-05T07:53:00.785Z,7602
2023-02-05T07:54:00.780Z,7602
2023-02-05T07:55:00.787Z,7602
2023-02-05T07:56:00.779Z,7602
2023-02-05T07:57:00.779Z,7330
2023-02-05T07:58:00.777Z,7330
2023-02-05T07:59:00.776Z,7330
2023-02-05T08:00:00.781Z,7330
2023-02-05T08:01:00.914Z,7330
2023-02-05T08:02:00.793Z,7006
2023-02-05T08:03:00.782Z,7006
2023-02-05T08:04:00.836Z,7006
2023-02-05T08:05:00.785Z,7006
2023-02-05T08:06:00.812Z,7006
2023-02-05T08:07:00.777Z,6399
2023-02-05T08:08:00.780Z,6399
2023-02-05T08:09:00.781Z,6399
2023-02-05T08:10:00.779Z,6399
2023-02-05T08:11:00.785Z,6399
2023-02-05T08:12:00.789Z,4606
2023-02-05T08:13:00.783Z,4606
2023-02-05T08:14:00.783Z,4606
2023-02-05T08:15:00.787Z,4606
2023-02-05T08:16:00.799Z,4606
2023-02-05T08:17:00.784Z,2052
2023-02-05T08:18:00.780Z,2052
2023-02-05T08:19:00.783Z,2052
2023-02-05T08:20:00.780Z,2052
2023-02-05T08:21:00.785Z,2052
2023-02-05T08:22:00.830Z,2480
2023-02-05T08:23:00.782Z,2480
2023-02-05T08:24:00.786Z,2480
2023-02-05T08:25:00.796Z,2480
2023-02-05T08:26:00.806Z,2480
2023-02-05T08:27:00.785Z,2277
2023-02-05T08:28:00.822Z,2277
2023-02-05T08:29:00.790Z,2277
2023-02-05T08:30:00.828Z,2277
2023-02-05T08:31:00.823Z,2277
2023-02-05T08:32:00.798Z,2342
2023-02-05T08:33:00.795Z,2342
2023-02-05T08:34:00.789Z,2342
2023-02-05T08:35:00.788Z,2342
2023-02-05T08:36:00.787Z,8089
2023-02-05T08:37:00.785Z,7425
2023-02-05T08:38:00.823Z,7425
2023-02-05T08:39:00.782Z,7425
2023-02-05T08:40:00.793Z,7425
2023-02-05T08:41:00.785Z,7425
2023-02-05T08:42:00.782Z,2418
2023-02-05T08:43:00.788Z,2418
2023-02-05T08:44:00.788Z,2418
2023-02-05T08:45:00.788Z,2418
2023-02-05T08:46:00.827Z,2418
2023-02-05T08:47:00.783Z,2423
2023-02-05T08:48:00.803Z,2423
2023-02-05T08:49:00.805Z,2423
2023-02-05T08:50:00.789Z,2423
2023-02-05T08:51:00.785Z,2423
2023-02-05T08:52:00.790Z,4831
2023-02-05T08:53:00.785Z,4831
2023-02-05T08:54:00.842Z,4831
2023-02-05T08:55:00.798Z,4831
2023-02-05T08:56:00.800Z,4831
2023-02-05T08:57:00.795Z,2713
2023-02-05T08:58:00.792Z,2713
2023-02-05T08:59:00.790Z,2713
2023-02-05T09:00:00.803Z,2713
2023-02-05T09:01:00.866Z,2713
2023-02-05T09:02:00.789Z,2628
2023-02-05T09:03:00.788Z,2628
2023-02-05T09:04:00.840Z,6245
2023-02-05T09:05:08.271Z,6245
2023-02-05T09:06:00.811Z,6245
2023-02-05T09:07:00.794Z,6245
2023-02-05T09:08:00.808Z,6245
2023-02-05T09:09:00.791Z,3494
2023-02-05T09:10:00.825Z,3494
2023-02-05T09:11:00.795Z,3494
2023-02-05T09:12:00.796Z,3494
2023-02-05T09:13:00.795Z,3494
2023-02-05T09:14:00.854Z,10387
2023-02-05T09:15:00.813Z,10387
2023-02-05T09:16:00.799Z,9723
2023-02-05T09:17:00.798Z,9629
2023-02-05T09:18:00.796Z,9629
2023-02-05T09:19:00.796Z,9629
2023-02-05T09:20:00.800Z,9629
2023-02-05T09:21:00.797Z,9629
2023-02-05T09:22:00.806Z,10629
2023-02-05T09:23:00.797Z,10629
2023-02-05T09:24:00.805Z,10304
2023-02-05T09:25:00.800Z,10264
2023-02-05T09:26:00.829Z,9436
2023-02-05T09:27:00.802Z,10141
2023-02-05T09:28:00.816Z,10051
2023-02-05T09:29:00.806Z,9806
2023-02-05T09:30:00.801Z,9779
2023-02-05T09:31:00.951Z,9779
2023-02-05T09:32:00.803Z,9779
2023-02-05T09:33:00.805Z,9779
2023-02-05T09:34:00.805Z,9779
2023-02-05T09:35:00.809Z,10181
2023-02-05T09:36:00.804Z,10181
2023-02-05T09:37:00.836Z,10181
2023-02-05T09:38:00.807Z,10228
2023-02-05T09:39:15.179Z,10238
2023-02-05T09:41:00.804Z,9051
2023-02-05T09:42:00.837Z,8604
2023-02-05T09:43:00.815Z,9559
2023-02-05T09:44:00.811Z,9811
2023-02-05T09:45:00.814Z,9870
2023-02-05T09:46:00.880Z,9870
2023-02-05T09:47:00.816Z,9870
2023-02-05T09:48:00.810Z,10184
2023-02-05T09:49:00.841Z,10259
2023-02-05T09:50:00.811Z,9876
2023-02-05T09:51:00.811Z,9696
2023-02-05T09:52:00.810Z,9743
2023-02-05T09:53:00.811Z,8983
2023-02-05T09:54:00.813Z,8983
2023-02-05T09:55:00.810Z,3437
2023-02-05T09:56:00.816Z,3351
2023-02-05T09:57:00.807Z,3351
2023-02-05T09:58:00.842Z,3351
2023-02-05T09:59:00.812Z,3351
2023-02-05T10:00:00.812Z,3351
2023-02-05T10:01:00.872Z,7480
2023-02-05T10:02:00.808Z,7480
2023-02-05T10:03:00.811Z,7480
2023-02-05T10:04:00.851Z,7480
2023-02-05T10:05:00.813Z,7480
2023-02-05T10:06:00.815Z,5222
2023-02-05T10:07:00.813Z,3883
2023-02-05T10:08:00.813Z,3883
2023-02-05T10:09:00.815Z,3883
2023-02-05T10:10:00.811Z,3883
2023-02-05T10:11:00.810Z,5170
2023-02-05T10:12:00.808Z,9513
2023-02-05T10:13:00.810Z,9513
2023-02-05T10:14:00.839Z,3621
2023-02-05T10:15:00.810Z,4967
2023-02-05T10:16:00.917Z,3462
2023-02-05T10:17:00.809Z,3079
2023-02-05T10:18:00.834Z,3075
2023-02-05T10:19:00.824Z,3021
2023-02-05T10:20:00.808Z,3021
2023-02-05T10:21:00.822Z,3021
2023-02-05T10:22:00.812Z,3003
2023-02-05T10:23:00.814Z,3087
2023-02-05T10:24:00.814Z,3309
2023-02-05T10:25:00.814Z,3323
2023-02-05T10:26:00.816Z,3042
2023-02-05T10:27:00.815Z,2921
2023-02-05T10:28:00.844Z,2735
2023-02-05T10:29:00.818Z,2671
2023-02-05T10:30:00.854Z,2679
2023-02-05T10:31:00.873Z,2782
2023-02-05T10:32:00.819Z,2889
2023-02-05T10:33:00.829Z,3003
2023-02-05T10:34:00.822Z,3135
2023-02-05T10:35:00.822Z,3292
2023-02-05T10:36:00.825Z,3339
2023-02-05T10:37:00.832Z,8455
2023-02-05T10:38:00.826Z,3343
2023-02-05T10:39:00.822Z,3073
2023-02-05T10:40:00.859Z,2672
2023-02-05T10:41:00.951Z,2586
2023-02-05T10:42:00.821Z,2659
2023-02-05T10:43:00.823Z,2781
2023-02-05T10:44:00.822Z,3047
2023-02-05T10:45:00.817Z,5138
2023-02-05T10:46:00.872Z,3134
2023-02-05T10:47:00.829Z,3128
2023-02-05T10:48:00.819Z,3120
2023-02-05T10:49:00.831Z,3133
2023-02-05T10:50:00.823Z,3146
2023-02-05T10:51:00.822Z,3285
2023-02-05T10:52:00.829Z,3126
2023-02-05T10:53:00.824Z,3058
2023-02-05T10:54:00.825Z,3052
2023-02-05T10:55:00.823Z,3065
2023-02-05T10:56:00.828Z,3074
2023-02-05T10:57:00.852Z,3048
2023-02-05T10:58:00.826Z,2969
2023-02-05T10:59:00.830Z,3074
2023-02-05T11:00:00.905Z,3502
2023-02-05T11:01:00.825Z,3568
2023-02-05T11:02:00.981Z,3193
2023-02-05T11:03:00.902Z,4102
2023-02-05T11:04:00.849Z,9883
2023-02-05T11:05:00.824Z,7561
2023-02-05T11:06:00.824Z,8851
2023-02-05T11:07:00.823Z,4233
2023-02-05T11:08:00.828Z,2921
2023-02-05T11:09:00.825Z,2879
2023-02-05T11:10:00.832Z,2911
2023-02-05T11:11:00.827Z,2934
2023-02-05T11:12:00.827Z,2813
2023-02-05T11:13:00.823Z,2732
2023-02-05T11:14:00.826Z,2735
2023-02-05T11:15:00.839Z,2784
2023-02-05T11:16:00.907Z,2778
2023-02-05T11:17:00.839Z,3078
2023-02-05T11:18:00.870Z,2852
2023-02-05T11:19:00.841Z,2615
2023-02-05T11:20:00.834Z,2563
2023-02-05T11:21:00.833Z,2627
2023-02-05T11:22:00.834Z,2653
2023-02-05T11:23:00.841Z,2869
2023-02-05T11:24:00.844Z,2893
2023-02-05T11:25:00.832Z,3052
2023-02-05T11:26:00.871Z,3380
2023-02-05T11:27:00.834Z,3803
2023-02-05T11:28:00.876Z,7119
2023-02-05T11:29:00.833Z,3493
2023-02-05T11:30:00.837Z,3186
2023-02-05T11:31:01.211Z,3055
2023-02-05T11:32:00.993Z,3133
2023-02-05T11:33:00.834Z,2909
2023-02-05T11:34:00.861Z,2860
2023-02-05T11:35:00.833Z,2817
2023-02-05T11:36:00.835Z,2660
2023-02-05T11:37:00.838Z,2554
2023-02-05T11:38:00.853Z,2493
2023-02-05T11:39:00.837Z,2406
2023-02-05T11:40:00.836Z,2381
2023-02-05T11:41:00.835Z,2357
2023-02-05T11:42:00.840Z,2420
2023-02-05T11:43:00.878Z,2438
2023-02-05T11:44:00.838Z,2550
2023-02-05T11:45:00.832Z,2529
2023-02-05T11:46:00.837Z,2529
2023-02-05T11:47:00.836Z,2695
2023-02-05T11:48:00.835Z,2698
2023-02-05T11:49:00.836Z,2693
2023-02-05T11:50:00.858Z,2703
2023-02-05T11:51:00.835Z,2643
2023-02-05T11:52:00.837Z,2697
2023-02-05T11:53:00.836Z,2634
2023-02-05T11:54:00.844Z,2663
2023-02-05T11:55:00.838Z,2743
2023-02-05T11:56:00.834Z,2723
2023-02-05T11:57:00.832Z,2800
2023-02-05T11:58:00.840Z,2737
2023-02-05T11:59:00.866Z,2734
2023-02-05T12:00:00.855Z,2745
2023-02-05T12:01:00.838Z,2755
2023-02-05T12:02:00.876Z,2777
2023-02-05T12:03:00.907Z,2844
2023-02-05T12:04:00.839Z,2948
2023-02-05T12:05:00.840Z,2954
2023-02-05T12:06:00.868Z,2963
2023-02-05T12:07:00.841Z,2958
2023-02-05T12:08:00.844Z,2958
2023-02-05T12:09:00.840Z,2958
2023-02-05T12:10:00.838Z,2958
2023-02-05T12:11:00.838Z,2908
2023-02-05T12:12:00.842Z,2948
2023-02-05T12:13:00.848Z,2933
2023-02-05T12:14:00.841Z,3054
2023-02-05T12:15:00.838Z,3080
2023-02-05T12:16:00.941Z,3083
2023-02-05T12:17:00.858Z,3059
2023-02-05T12:18:00.844Z,2988
2023-02-05T12:19:00.843Z,2932
2023-02-05T12:20:00.850Z,2981
2023-02-05T12:21:00.843Z,3041
2023-02-05T12:22:00.873Z,3361
2023-02-05T12:23:00.844Z,3244
2023-02-05T12:24:00.843Z,10440
2023-02-05T12:25:00.844Z,3016
2023-02-05T12:26:00.843Z,3095
2023-02-05T12:27:00.845Z,10328
2023-02-05T12:28:00.871Z,4275
2023-02-05T12:29:00.840Z,3053
2023-02-05T12:30:00.844Z,2847
2023-02-05T12:31:00.848Z,2822
2023-02-05T12:32:00.851Z,2844
2023-02-05T12:33:00.841Z,2831
2023-02-05T12:34:00.841Z,2729
2023-02-05T12:35:00.840Z,2698
2023-02-05T12:36:00.841Z,2915
2023-02-05T12:37:00.841Z,7477
2023-02-05T12:38:00.860Z,5748
2023-02-05T12:39:02.965Z,9570
2023-02-05T12:40:00.845Z,9811
2023-02-05T12:41:00.839Z,3455
2023-02-05T12:42:00.853Z,11421
2023-02-05T12:43:00.835Z,11269
2023-02-05T12:44:00.902Z,11269
2023-02-05T12:45:00.840Z,10884
2023-02-05T12:46:00.860Z,11153
2023-02-05T12:47:00.839Z,8181
2023-02-05T12:48:00.843Z,8696
2023-02-05T12:49:00.835Z,3117
2023-02-05T12:50:00.837Z,11161
2023-02-05T12:51:00.840Z,10666
2023-02-05T12:52:00.849Z,10894
2023-02-05T12:53:00.843Z,11122
2023-02-05T12:54:00.864Z,11020
2023-02-05T12:55:00.838Z,6207
2023-02-05T12:56:00.841Z,11115
2023-02-05T12:57:00.838Z,11146
2023-02-05T12:58:00.838Z,10421
2023-02-05T12:59:00.838Z,10165
2023-02-05T13:00:00.841Z,9554
2023-02-05T13:01:00.853Z,10804
2023-02-05T13:02:00.840Z,10571
2023-02-05T13:03:00.837Z,10629
2023-02-05T13:04:01.453Z,10656
2023-02-05T13:05:00.841Z,10221
2023-02-05T13:06:00.842Z,7910
2023-02-05T13:07:00.840Z,9754
2023-02-05T13:08:00.837Z,7278
2023-02-05T13:09:00.843Z,4220
2023-02-05T13:10:01.371Z,8515
2023-02-05T13:11:00.839Z,9072
2023-02-05T13:12:00.856Z,3606
2023-02-05T13:13:00.852Z,6109
2023-02-05T13:14:00.846Z,3023
2023-02-05T13:15:00.842Z,2960
2023-02-05T13:16:00.847Z,4644
2023-02-05T13:17:00.846Z,6269
2023-02-05T13:18:00.853Z,4965
2023-02-05T13:19:00.855Z,6610
2023-02-05T13:20:00.862Z,5222
2023-02-05T13:21:00.845Z,4274
2023-02-05T13:22:00.852Z,4037
2023-02-05T13:23:00.844Z,3072
2023-02-05T13:24:00.848Z,2561
2023-02-05T13:25:00.849Z,2485
2023-02-05T13:26:00.877Z,2398
2023-02-05T13:27:00.847Z,2343
2023-02-05T13:28:00.884Z,2280
2023-02-05T13:29:00.847Z,2296
2023-02-05T13:30:00.847Z,2257
2023-02-05T13:31:00.929Z,2831
2023-02-05T13:32:07.274Z,2831
2023-02-05T13:33:00.848Z,2326
2023-02-05T13:34:00.849Z,2250
2023-02-05T13:35:00.859Z,2249
2023-02-05T13:36:00.848Z,2279
2023-02-05T13:37:00.845Z,2378
2023-02-05T13:38:00.846Z,2692
2023-02-05T13:39:00.849Z,3217
2023-02-05T13:40:00.842Z,2933
2023-02-05T13:41:00.846Z,3143
2023-02-05T13:42:00.867Z,9508
2023-02-05T13:43:00.847Z,2932
2023-02-05T13:44:00.846Z,6677
2023-02-05T13:45:00.843Z,6567
2023-02-05T13:46:00.918Z,7171
2023-02-05T13:47:00.846Z,3042
2023-02-05T13:48:00.844Z,3299
2023-02-05T13:49:00.846Z,2740
2023-02-05T13:50:00.847Z,2513
2023-02-05T13:51:00.851Z,2333
2023-02-05T13:52:00.847Z,2162
2023-02-05T13:53:00.845Z,2084
2023-02-05T13:54:00.844Z,1998
2023-02-05T13:55:00.852Z,1863
2023-02-05T13:56:00.846Z,1837
2023-02-05T13:57:00.843Z,2814
2023-02-05T13:58:00.871Z,2155